Chestnut Ridge, PA (15422)

8:30 PM EDT on March 27, 2015 (GMT -0400)
Dunbar | | Change Station
CLOSE
Current Station
Personal Weather Station
Location: Dunbar, PA
Elevation: 1056 ft
Nearby Weather Stations

Elev 1056 ft 40.00 °N, 79.69 °W | Updated 4 minutes ago

Snow
Snow
28.8 °F
Feels Like 24 °F
N
4.5
Wind Variable Wind from NW
Gusts 10.7 mph

Today
High -- | Low -- °F
--% Chance of Precip.
Yesterday
High -- | Low -- °F
Precip. -- in
7:11 AM 7:38 PM
First Quarter, 57% visible
Pressure 29.92 in
Visibility 2.0 miles
Clouds Scattered Clouds 900 ft
Mostly Cloudy 1300 ft
Overcast 3300 ft
Windchill 24 °F
Dew Point 24 °F
Humidity 83%
Rainfall 0.00 in
Snow Depth Not available.
UV 0 out of 12
Pollen 4.50 out of 12
Air Quality Not available.
Flu Activity Not available.
SPECI KMGW 280026Z 33007KT 290V360 2SM -SN SCT009 BKN013 OVC033 M01/M05 A2992 RMK AO2 P0000 T10111050

More Conditions Fewer Conditions

Pressure 29.92 in
Visibility 2.0 miles
Clouds Scattered Clouds 900 ft
Mostly Cloudy 1300 ft
Overcast 3300 ft
Windchill 24 °F
Dew Point 24 °F
Humidity 83%
Rainfall 0.00 in
Snow Depth Not available.
UV 0 out of 12
Pollen 4.50 out of 12
Air Quality Not available.
Flu Activity Not available.
SPECI KMGW 280026Z 33007KT 290V360 2SM -SN SCT009 BKN013 OVC033 M01/M05 A2992 RMK AO2 P0000 T10111050

More Conditions Fewer Conditions

10-Day Weather Forecast

Almanac

Astronomy

Mar. 27, 2015 Rise Set
Actual Time
Civil Twilight
Nautical Twilight
Astronomical Twilight
Moon
Length of Visible Light
Length of Day
Tomorrow will be .
, % of the Moon is Illuminated

Today's Extremes

State Highs State Lows

Community

WunderPhotos

Upload Photos

1,808,887 photos uploaded!

WunderBlogs® & News

Nearby

Air Quality

  Air Quality AQ Index Pollutant
Not available.

Snow Depth

Station Depth Elevation

Earthquake Activity

City Distance Mag. Time & Date
Minimum magnitude displayed is 2.5.

Coastal Water Temperatures

Place Temperature

Stations

Nearby Weather Stations

Station Location Temp. Windchill Dew Point Humidity Wind Precip. Elev Updated Type